createdAt,value
2022-11-30T00:02:33.811Z,12.30
2022-11-30T00:07:35.641Z,11.05
2022-11-30T00:12:37.423Z,12.05
2022-11-30T00:17:42.495Z,13.30
2022-11-30T00:22:44.154Z,11.60
2022-11-30T00:27:45.806Z,11.82
2022-11-30T00:32:47.423Z,12.55
2022-11-30T00:37:49.095Z,11.73
2022-11-30T00:42:50.776Z,11.65
2022-11-30T00:47:52.403Z,11.82
2022-11-30T00:52:54.068Z,12.18
2022-11-30T00:57:55.733Z,12.30
2022-11-30T01:02:59.253Z,11.55
2022-11-30T01:08:02.515Z,11.30
2022-11-30T01:13:04.276Z,12.40
2022-11-30T01:18:06.559Z,12.63
2022-11-30T01:23:08.550Z,12.43
2022-11-30T01:28:10.700Z,11.70
2022-11-30T01:33:12.436Z,11.75
2022-11-30T01:38:14.132Z,12.73
2022-11-30T01:43:15.916Z,12.60
2022-11-30T01:48:17.686Z,12.52
2022-11-30T01:53:19.561Z,12.77
2022-11-30T01:58:29.891Z,11.18
2022-11-30T02:03:55.969Z,12.45
2022-11-30T02:08:57.885Z,12.38
2022-11-30T02:14:05.414Z,12.70
2022-11-30T02:19:38.074Z,11.73
2022-11-30T02:25:37.249Z,12.50
2022-11-30T02:30:43.895Z,13.02
2022-11-30T02:35:54.575Z,12.82
2022-11-30T02:40:56.935Z,13.23
2022-11-30T02:46:10.857Z,12.45
2022-11-30T02:51:16.864Z,12.88
2022-11-30T02:56:19.667Z,11.80
2022-11-30T03:01:22.390Z,13.65
2022-11-30T03:06:24.078Z,12.68
2022-11-30T03:11:25.751Z,12.68
2022-11-30T03:16:27.682Z,12.95
2022-11-30T03:21:29.508Z,12.77
2022-11-30T03:26:31.178Z,13.27
2022-11-30T03:31:32.961Z,12.38
2022-11-30T03:36:34.736Z,12.75
2022-11-30T03:41:36.497Z,12.98
2022-11-30T03:46:38.281Z,12.35
2022-11-30T03:51:40.012Z,11.80
2022-11-30T03:56:41.662Z,13.05
2022-11-30T04:01:43.398Z,12.88
2022-11-30T04:06:45.161Z,14.80
2022-11-30T04:11:46.864Z,12.80
2022-11-30T04:16:48.515Z,13.60
2022-11-30T04:21:51.419Z,13.65
2022-11-30T04:26:53.154Z,13.10
2022-11-30T04:31:54.814Z,12.77
2022-11-30T04:37:00.264Z,13.25
2022-11-30T04:42:02.486Z,13.30
2022-11-30T04:47:04.358Z,12.43
2022-11-30T04:52:06.021Z,12.57
2022-11-30T04:57:07.730Z,13.25
2022-11-30T05:02:09.548Z,12.43
2022-11-30T05:07:11.290Z,13.30
2022-11-30T05:12:13.014Z,13.77
2022-11-30T05:17:14.705Z,13.77
2022-11-30T05:22:16.407Z,13.02
2022-11-30T05:27:22.332Z,13.27
2022-11-30T05:32:24.474Z,13.48
2022-11-30T05:37:26.243Z,13.00
2022-11-30T05:42:28.234Z,13.68
2022-11-30T05:47:29.960Z,13.90
2022-11-30T05:52:31.648Z,14.32
2022-11-30T05:57:37.263Z,13.55
2022-11-30T06:02:39.042Z,13.85
2022-11-30T06:07:41.385Z,15.15
2022-11-30T06:12:43.119Z,14.55
2022-11-30T06:17:44.828Z,14.00
2022-11-30T06:22:47.266Z,15.95
2022-11-30T06:27:49.060Z,14.18
2022-11-30T06:32:53.045Z,13.60
2022-11-30T06:37:55.182Z,15.18
2022-11-30T06:42:56.846Z,15.23
2022-11-30T06:47:58.765Z,14.65
2022-11-30T06:53:00.584Z,15.02
2022-11-30T06:58:09.628Z,15.30
2022-11-30T07:03:12.101Z,16.67
2022-11-30T07:08:16.331Z,16.52
2022-11-30T07:13:19.184Z,16.02
2022-11-30T07:18:20.952Z,16.38
2022-11-30T07:23:41.172Z,17.05
2022-11-30T07:28:46.057Z,17.52
2022-11-30T07:33:48.867Z,18.15
2022-11-30T07:38:50.537Z,18.48
2022-11-30T07:43:52.249Z,19.98
2022-11-30T07:48:54.005Z,19.20
2022-11-30T07:53:56.887Z,18.38
2022-11-30T07:59:00.785Z,18.73
2022-11-30T08:04:02.606Z,20.20
2022-11-30T08:09:05.177Z,20.08
2022-11-30T08:14:06.849Z,20.00
2022-11-30T08:19:08.685Z,20.00
2022-11-30T08:24:13.606Z,21.65
2022-11-30T08:29:15.328Z,21.75
2022-11-30T08:34:17.166Z,21.38
2022-11-30T08:39:18.979Z,21.55
2022-11-30T08:44:20.727Z,19.90
2022-11-30T08:49:24.441Z,23.52
2022-11-30T08:54:27.338Z,21.63
2022-11-30T08:59:31.373Z,22.42
2022-11-30T09:04:33.054Z,21.38
2022-11-30T09:09:35.073Z,21.23
2022-11-30T09:14:36.875Z,22.30
2022-11-30T09:19:38.586Z,21.33
2022-11-30T09:24:41.410Z,21.95
2022-11-30T09:29:43.081Z,21.75
2022-11-30T09:34:44.754Z,21.58
2022-11-30T09:39:46.444Z,20.42
2022-11-30T09:45:14.171Z,21.77
2022-11-30T09:50:22.562Z,20.90
2022-11-30T09:55:33.985Z,21.05
2022-11-30T10:00:36.890Z,20.90
2022-11-30T10:06:06.897Z,20.52
2022-11-30T10:11:18.711Z,20.60
2022-11-30T10:16:32.370Z,22.67
2022-11-30T10:22:17.012Z,20.88
2022-11-30T10:27:38.164Z,20.95
2022-11-30T10:32:41.869Z,20.38
2022-11-30T10:37:45.521Z,20.30
2022-11-30T10:42:54.557Z,20.05
2022-11-30T10:48:06.141Z,19.88
2022-11-30T10:53:11.842Z,18.95
2022-11-30T10:58:42.996Z,19.02
2022-11-30T11:03:44.679Z,19.52
2022-11-30T11:08:46.989Z,19.35
2022-11-30T11:13:48.672Z,19.30
2022-11-30T11:18:55.823Z,17.48
2022-11-30T11:23:58.220Z,18.23
2022-11-30T11:28:59.967Z,16.75
2022-11-30T11:34:02.040Z,17.88
2022-11-30T11:39:23.865Z,18.13
2022-11-30T11:44:27.905Z,17.35
2022-11-30T11:49:38.481Z,18.92
2022-11-30T11:54:57.246Z,20.45
2022-11-30T12:00:15.607Z,18.92
2022-11-30T12:05:24.540Z,19.08
2022-11-30T12:10:52.809Z,19.60
2022-11-30T12:16:00.805Z,19.02
2022-11-30T12:21:14.786Z,19.02
2022-11-30T12:26:48.513Z,20.20
2022-11-30T12:32:19.887Z,20.83
2022-11-30T12:37:50.609Z,20.20
2022-11-30T12:43:23.703Z,20.33
2022-11-30T12:49:08.779Z,19.45
2022-11-30T12:54:19.306Z,19.27
2022-11-30T12:59:34.761Z,19.38
2022-11-30T13:04:57.727Z,18.98
2022-11-30T13:10:19.011Z,18.75
2022-11-30T13:15:31.154Z,18.60
2022-11-30T13:20:46.657Z,18.67
2022-11-30T13:26:07.887Z,17.92
2022-11-30T13:31:25.523Z,17.77
2022-11-30T13:36:38.184Z,17.42
2022-11-30T13:41:45.142Z,17.73
2022-11-30T13:46:51.711Z,17.17
2022-11-30T13:52:20.869Z,16.75
2022-11-30T13:57:35.520Z,17.60
2022-11-30T14:02:42.019Z,18.55
2022-11-30T14:07:52.969Z,16.00
2022-11-30T14:12:58.873Z,17.15
2022-11-30T14:18:24.761Z,16.73
2022-11-30T14:23:45.047Z,16.63
2022-11-30T14:28:57.320Z,16.75
2022-11-30T14:34:11.776Z,15.95
2022-11-30T14:39:33.681Z,16.73
2022-11-30T14:44:36.836Z,16.65
2022-11-30T14:49:45.992Z,16.75
2022-11-30T14:54:58.415Z,16.40
2022-11-30T15:00:00.258Z,17.27
2022-11-30T15:05:02.147Z,17.55
2022-11-30T15:10:07.911Z,17.48
2022-11-30T15:15:22.138Z,17.42
2022-11-30T15:20:28.709Z,16.65
2022-11-30T15:25:37.405Z,16.90
2022-11-30T15:30:43.329Z,17.02
2022-11-30T15:36:14.149Z,16.80
2022-11-30T15:41:22.477Z,16.60
2022-11-30T15:46:46.104Z,15.98
2022-11-30T15:52:05.568Z,17.52
2022-11-30T15:57:09.220Z,17.60
2022-11-30T16:02:31.379Z,17.73
2022-11-30T16:07:36.330Z,17.80
2022-11-30T16:12:38.112Z,16.58
2022-11-30T16:17:39.797Z,17.08
2022-11-30T16:22:46.716Z,17.73
2022-11-30T16:27:48.909Z,17.92
2022-11-30T16:32:51.673Z,17.40
2022-11-30T16:37:53.458Z,17.08
2022-11-30T16:42:55.151Z,17.33
2022-11-30T16:47:56.866Z,17.67
2022-11-30T16:52:58.858Z,17.25
2022-11-30T16:58:01.610Z,17.23
2022-11-30T17:03:20.568Z,17.75
2022-11-30T17:08:22.881Z,18.67
2022-11-30T17:13:24.538Z,18.90
2022-11-30T17:18:26.178Z,18.27
2022-11-30T17:23:27.835Z,19.08
2022-11-30T17:28:29.516Z,18.15
2022-11-30T17:33:34.747Z,17.85
2022-11-30T17:38:37.600Z,18.10
2022-11-30T17:43:39.565Z,18.45
2022-11-30T17:48:41.681Z,18.92
2022-11-30T17:53:44.316Z,21.27
2022-11-30T17:58:49.025Z,19.38
2022-11-30T18:03:52.277Z,20.75
2022-11-30T18:08:54.336Z,21.83
2022-11-30T18:13:59.582Z,22.98
2022-11-30T18:19:01.273Z,23.83
2022-11-30T18:24:02.963Z,23.95
2022-11-30T18:29:05.059Z,25.00
2022-11-30T18:34:07.282Z,23.58
2022-11-30T18:39:09.412Z,25.27
2022-11-30T18:44:11.359Z,26.77
2022-11-30T18:49:13.224Z,25.25
2022-11-30T18:54:14.913Z,26.25
2022-11-30T18:59:16.651Z,26.67
2022-11-30T19:04:18.322Z,27.10
2022-11-30T19:09:20.110Z,26.70
2022-11-30T19:14:21.761Z,27.60
2022-11-30T19:19:23.466Z,26.60
2022-11-30T19:24:25.375Z,27.38
2022-11-30T19:29:27.091Z,26.15
2022-11-30T19:34:28.808Z,26.60
2022-11-30T19:39:30.550Z,27.17
2022-11-30T19:44:32.212Z,27.52
2022-11-30T19:49:33.929Z,26.80
2022-11-30T19:54:35.632Z,27.13
2022-11-30T19:59:37.336Z,27.15
2022-11-30T20:04:39.579Z,27.15
2022-11-30T20:09:41.505Z,26.38
2022-11-30T20:14:43.267Z,25.23
2022-11-30T20:19:44.960Z,26.60
2022-11-30T20:24:47.065Z,26.77
2022-11-30T20:29:50.999Z,26.55
2022-11-30T20:34:52.698Z,27.35
2022-11-30T20:39:54.537Z,27.80
2022-11-30T20:44:56.239Z,25.63
2022-11-30T20:49:58.132Z,27.70
2022-11-30T20:55:00.376Z,27.63
2022-11-30T21:00:02.333Z,25.75
2022-11-30T21:05:04.224Z,27.13
2022-11-30T21:10:06.670Z,26.52
2022-11-30T21:15:09.807Z,27.02
2022-11-30T21:20:12.190Z,27.30
2022-11-30T21:25:14.117Z,27.77
2022-11-30T21:30:16.045Z,28.92
2022-11-30T21:35:17.810Z,27.40
2022-11-30T21:40:19.477Z,28.33
2022-11-30T21:45:21.328Z,28.33
2022-11-30T21:50:27.216Z,30.85
2022-11-30T21:55:29.207Z,30.05
2022-11-30T22:00:30.919Z,30.17
2022-11-30T22:05:32.683Z,28.75
2022-11-30T22:10:34.472Z,28.95
2022-11-30T22:15:36.306Z,30.15
2022-11-30T22:20:38.125Z,30.65
2022-11-30T22:25:39.938Z,29.90
2022-11-30T22:30:41.699Z,31.90
2022-11-30T22:35:43.470Z,31.60
2022-11-30T22:40:45.143Z,30.08
2022-11-30T22:45:46.807Z,31.67
2022-11-30T22:50:48.554Z,30.92
2022-11-30T22:55:50.417Z,31.38
2022-11-30T23:00:52.267Z,31.13
2022-11-30T23:05:55.210Z,31.10
2022-11-30T23:11:03.903Z,31.38
2022-11-30T23:16:06.767Z,31.58
2022-11-30T23:21:17.510Z,30.85
2022-11-30T23:26:29.130Z,30.45
2022-11-30T23:31:35.738Z,28.63
2022-11-30T23:36:38.331Z,26.83
2022-11-30T23:41:40.890Z,25.77
2022-11-30T23:46:42.784Z,23.80
2022-11-30T23:51:44.537Z,23.60
2022-11-30T23:56:46.305Z,23.27
